sensor_id;sensor_type;location;lat;lon;timestamp;pressure;altitude;pressure_sealevel;temperature;humidity
29815;BME280;16708;50.426;7.664;2023-05-24T00:01:04;993.05;;;7.36;100.00
29815;BME280;16708;50.426;7.664;2023-05-24T00:05:58;993.05;;;7.33;100.00
29815;BME280;16708;50.426;7.664;2023-05-24T00:10:51;993.12;;;7.34;100.00
29815;BME280;16708;50.426;7.664;2023-05-24T00:15:46;993.17;;;7.42;100.00
29815;BME280;16708;50.426;7.664;2023-05-24T00:20:40;993.29;;;7.39;100.00
29815;BME280;16708;50.426;7.664;2023-05-24T00:25:34;993.20;;;7.37;100.00
29815;BME280;16708;50.426;7.664;2023-05-24T00:30:28;993.24;;;7.29;100.00
29815;BME280;16708;50.426;7.664;2023-05-24T00:35:22;993.23;;;7.24;100.00
29815;BME280;16708;50.426;7.664;2023-05-24T00:40:17;993.28;;;7.22;100.00
29815;BME280;16708;50.426;7.664;2023-05-24T00:45:12;993.31;;;7.08;100.00
29815;BME280;16708;50.426;7.664;2023-05-24T00:50:06;993.27;;;6.96;100.00
29815;BME280;16708;50.426;7.664;2023-05-24T00:55:01;993.23;;;7.00;100.00
29815;BME280;16708;50.426;7.664;2023-05-24T00:59:55;993.22;;;6.87;100.00
29815;BME280;16708;50.426;7.664;2023-05-24T01:04:49;993.24;;;6.73;100.00
29815;BME280;16708;50.426;7.664;2023-05-24T01:09:44;993.20;;;6.64;100.00
29815;BME280;16708;50.426;7.664;2023-05-24T01:14:38;993.23;;;6.49;100.00
29815;BME280;16708;50.426;7.664;2023-05-24T01:19:32;993.22;;;6.32;100.00
29815;BME280;16708;50.426;7.664;2023-05-24T01:24:27;993.18;;;6.18;100.00
29815;BME280;16708;50.426;7.664;2023-05-24T01:29:20;993.26;;;6.07;100.00
29815;BME280;16708;50.426;7.664;2023-05-24T01:34:14;993.20;;;5.93;100.00
29815;BME280;16708;50.426;7.664;2023-05-24T01:39:08;993.22;;;5.89;100.00
29815;BME280;16708;50.426;7.664;2023-05-24T01:44:02;993.22;;;5.80;100.00
29815;BME280;16708;50.426;7.664;2023-05-24T01:48:57;993.28;;;5.71;100.00
29815;BME280;16708;50.426;7.664;2023-05-24T01:53:50;993.34;;;5.65;100.00
29815;BME280;16708;50.426;7.664;2023-05-24T01:58:45;993.23;;;5.60;100.00
29815;BME280;16708;50.426;7.664;2023-05-24T02:03:39;993.19;;;5.50;100.00
29815;BME280;16708;50.426;7.664;2023-05-24T02:08:32;993.30;;;5.30;100.00
29815;BME280;16708;50.426;7.664;2023-05-24T02:13:27;993.28;;;5.18;100.00
29815;BME280;16708;50.426;7.664;2023-05-24T02:18:21;993.28;;;5.12;100.00
29815;BME280;16708;50.426;7.664;2023-05-24T02:23:16;993.31;;;5.06;100.00
29815;BME280;16708;50.426;7.664;2023-05-24T02:28:10;993.21;;;5.00;100.00
29815;BME280;16708;50.426;7.664;2023-05-24T02:33:04;993.26;;;4.91;100.00
29815;BME280;16708;50.426;7.664;2023-05-24T02:37:58;993.24;;;4.71;100.00
29815;BME280;16708;50.426;7.664;2023-05-24T02:42:50;993.23;;;4.52;100.00
29815;BME280;16708;50.426;7.664;2023-05-24T02:47:45;993.17;;;4.42;100.00
29815;BME280;16708;50.426;7.664;2023-05-24T02:52:39;993.13;;;4.28;100.00
29815;BME280;16708;50.426;7.664;2023-05-24T02:57:33;993.16;;;4.26;100.00
29815;BME280;16708;50.426;7.664;2023-05-24T03:02:27;993.17;;;4.20;100.00
29815;BME280;16708;50.426;7.664;2023-05-24T03:07:19;993.08;;;4.16;100.00
29815;BME280;16708;50.426;7.664;2023-05-24T03:12:13;993.08;;;4.10;100.00
29815;BME280;16708;50.426;7.664;2023-05-24T03:17:08;993.01;;;4.00;100.00
29815;BME280;16708;50.426;7.664;2023-05-24T03:22:03;993.08;;;3.90;100.00
29815;BME280;16708;50.426;7.664;2023-05-24T03:26:56;993.02;;;3.86;100.00
29815;BME280;16708;50.426;7.664;2023-05-24T03:31:50;993.08;;;3.79;100.00
29815;BME280;16708;50.426;7.664;2023-05-24T03:36:45;993.08;;;3.71;100.00
29815;BME280;16708;50.426;7.664;2023-05-24T03:41:37;993.04;;;3.69;100.00
29815;BME280;16708;50.426;7.664;2023-05-24T03:46:31;993.12;;;3.72;100.00
29815;BME280;16708;50.426;7.664;2023-05-24T03:51:25;993.12;;;3.66;100.00
29815;BME280;16708;50.426;7.664;2023-05-24T03:56:19;993.26;;;3.74;100.00
29815;BME280;16708;50.426;7.664;2023-05-24T04:01:13;993.23;;;3.72;100.00
29815;BME280;16708;50.426;7.664;2023-05-24T04:06:08;993.44;;;3.70;100.00
29815;BME280;16708;50.426;7.664;2023-05-24T04:11:01;993.44;;;3.71;100.00
29815;BME280;16708;50.426;7.664;2023-05-24T04:15:55;993.39;;;3.79;100.00
29815;BME280;16708;50.426;7.664;2023-05-24T04:20:48;993.32;;;3.98;100.00
29815;BME280;16708;50.426;7.664;2023-05-24T04:25:41;993.36;;;4.11;100.00
29815;BME280;16708;50.426;7.664;2023-05-24T04:30:36;993.35;;;4.25;100.00
29815;BME280;16708;50.426;7.664;2023-05-24T04:35:31;993.29;;;4.35;100.00
29815;BME280;16708;50.426;7.664;2023-05-24T04:40:25;993.35;;;4.62;100.00
29815;BME280;16708;50.426;7.664;2023-05-24T04:45:19;993.31;;;4.76;100.00
29815;BME280;16708;50.426;7.664;2023-05-24T04:50:13;993.26;;;4.98;100.00
29815;BME280;16708;50.426;7.664;2023-05-24T04:55:08;993.37;;;5.22;100.00
29815;BME280;16708;50.426;7.664;2023-05-24T05:00:03;993.42;;;5.44;100.00
29815;BME280;16708;50.426;7.664;2023-05-24T05:04:57;993.53;;;5.69;100.00
29815;BME280;16708;50.426;7.664;2023-05-24T05:09:51;993.60;;;5.86;100.00
29815;BME280;16708;50.426;7.664;2023-05-24T05:14:45;993.72;;;6.14;100.00
29815;BME280;16708;50.426;7.664;2023-05-24T05:19:39;993.69;;;6.34;100.00
29815;BME280;16708;50.426;7.664;2023-05-24T05:24:34;993.65;;;6.49;100.00
29815;BME280;16708;50.426;7.664;2023-05-24T05:29:28;993.72;;;6.70;100.00
29815;BME280;16708;50.426;7.664;2023-05-24T05:34:22;993.87;;;6.94;100.00
29815;BME280;16708;50.426;7.664;2023-05-24T05:39:17;993.89;;;7.40;100.00
29815;BME280;16708;50.426;7.664;2023-05-24T05:44:09;993.85;;;7.42;100.00
29815;BME280;16708;50.426;7.664;2023-05-24T05:49:04;993.99;;;7.49;100.00
29815;BME280;16708;50.426;7.664;2023-05-24T05:53:58;993.95;;;7.47;100.00
29815;BME280;16708;50.426;7.664;2023-05-24T05:58:52;993.98;;;7.83;100.00
29815;BME280;16708;50.426;7.664;2023-05-24T06:03:47;993.86;;;7.94;100.00
29815;BME280;16708;50.426;7.664;2023-05-24T06:08:41;993.88;;;8.13;100.00
29815;BME280;16708;50.426;7.664;2023-05-24T06:13:36;993.97;;;8.20;100.00
29815;BME280;16708;50.426;7.664;2023-05-24T06:18:30;994.03;;;8.40;100.00
29815;BME280;16708;50.426;7.664;2023-05-24T06:23:25;993.93;;;8.47;100.00
29815;BME280;16708;50.426;7.664;2023-05-24T06:28:17;993.87;;;8.51;100.00
29815;BME280;16708;50.426;7.664;2023-05-24T06:33:11;993.82;;;8.72;100.00
29815;BME280;16708;50.426;7.664;2023-05-24T06:38:06;993.69;;;8.56;100.00
29815;BME280;16708;50.426;7.664;2023-05-24T06:43:00;993.68;;;8.68;100.00
29815;BME280;16708;50.426;7.664;2023-05-24T06:47:54;993.78;;;9.08;100.00
29815;BME280;16708;50.426;7.664;2023-05-24T06:52:49;993.71;;;9.35;100.00
29815;BME280;16708;50.426;7.664;2023-05-24T06:57:43;993.69;;;9.36;100.00
29815;BME280;16708;50.426;7.664;2023-05-24T07:02:37;993.65;;;9.27;100.00
29815;BME280;16708;50.426;7.664;2023-05-24T07:07:31;993.78;;;9.70;100.00
29815;BME280;16708;50.426;7.664;2023-05-24T07:12:25;994.02;;;9.76;100.00
29815;BME280;16708;50.426;7.664;2023-05-24T07:17:20;994.09;;;10.11;100.00
29815;BME280;16708;50.426;7.664;2023-05-24T07:22:15;994.07;;;9.79;100.00
29815;BME280;16708;50.426;7.664;2023-05-24T07:27:09;994.22;;;9.60;100.00
29815;BME280;16708;50.426;7.664;2023-05-24T07:32:04;994.32;;;10.18;100.00
29815;BME280;16708;50.426;7.664;2023-05-24T07:36:58;994.31;;;10.11;100.00
29815;BME280;16708;50.426;7.664;2023-05-24T07:41:52;994.25;;;10.54;100.00
29815;BME280;16708;50.426;7.664;2023-05-24T07:46:47;994.25;;;10.63;100.00
29815;BME280;16708;50.426;7.664;2023-05-24T07:51:41;994.33;;;11.24;100.00
29815;BME280;16708;50.426;7.664;2023-05-24T07:56:36;994.26;;;11.21;100.00
29815;BME280;16708;50.426;7.664;2023-05-24T08:01:30;994.16;;;11.42;100.00
29815;BME280;16708;50.426;7.664;2023-05-24T08:06:24;994.32;;;11.32;100.00
29815;BME280;16708;50.426;7.664;2023-05-24T08:11:18;994.23;;;10.69;100.00
29815;BME280;16708;50.426;7.664;2023-05-24T08:16:13;994.36;;;11.02;100.00
29815;BME280;16708;50.426;7.664;2023-05-24T08:21:07;994.40;;;11.15;100.00
29815;BME280;16708;50.426;7.664;2023-05-24T08:26:02;994.39;;;11.54;100.00
29815;BME280;16708;50.426;7.664;2023-05-24T08:30:56;994.43;;;11.81;100.00
29815;BME280;16708;50.426;7.664;2023-05-24T08:35:51;994.54;;;12.12;100.00
29815;BME280;16708;50.426;7.664;2023-05-24T08:40:46;994.53;;;12.54;85.50
29815;BME280;16708;50.426;7.664;2023-05-24T08:45:41;994.46;;;12.46;77.88
29815;BME280;16708;50.426;7.664;2023-05-24T08:50:35;994.37;;;12.78;90.07
29815;BME280;16708;50.426;7.664;2023-05-24T08:55:30;994.25;;;13.27;88.77
29815;BME280;16708;50.426;7.664;2023-05-24T09:00:24;994.18;;;13.96;79.88
29815;BME280;16708;50.426;7.664;2023-05-24T09:05:19;994.14;;;14.23;84.26
29815;BME280;16708;50.426;7.664;2023-05-24T09:10:14;994.09;;;14.33;75.08
29815;BME280;16708;50.426;7.664;2023-05-24T09:15:08;994.13;;;14.89;73.64
29815;BME280;16708;50.426;7.664;2023-05-24T09:20:03;994.09;;;15.06;59.77
29815;BME280;16708;50.426;7.664;2023-05-24T09:24:58;993.98;;;14.42;61.59
29815;BME280;16708;50.426;7.664;2023-05-24T09:29:51;993.90;;;13.83;71.35
29815;BME280;16708;50.426;7.664;2023-05-24T09:34:46;993.91;;;13.18;68.92
29815;BME280;16708;50.426;7.664;2023-05-24T09:39:40;993.89;;;14.34;69.33
29815;BME280;16708;50.426;7.664;2023-05-24T09:44:33;993.91;;;14.51;67.36
29815;BME280;16708;50.426;7.664;2023-05-24T09:49:26;993.83;;;13.78;66.59
29815;BME280;16708;50.426;7.664;2023-05-24T09:59:15;993.78;;;14.14;77.55
29815;BME280;16708;50.426;7.664;2023-05-24T10:04:09;993.83;;;13.82;69.08
29815;BME280;16708;50.426;7.664;2023-05-24T10:09:04;993.86;;;15.06;67.88
29815;BME280;16708;50.426;7.664;2023-05-24T10:13:59;993.88;;;15.43;60.91
29815;BME280;16708;50.426;7.664;2023-05-24T10:18:53;993.83;;;15.41;61.52
29815;BME280;16708;50.426;7.664;2023-05-24T10:23:48;993.73;;;14.62;61.79
29815;BME280;16708;50.426;7.664;2023-05-24T10:28:43;993.76;;;17.67;48.92
29815;BME280;16708;50.426;7.664;2023-05-24T10:33:40;993.56;;;17.63;47.05
29815;BME280;16708;50.426;7.664;2023-05-24T10:38:35;993.61;;;16.73;53.38
29815;BME280;16708;50.426;7.664;2023-05-24T10:53:15;993.58;;;13.96;69.38
29815;BME280;16708;50.426;7.664;2023-05-24T11:03:02;993.59;;;14.89;63.53
29815;BME280;16708;50.426;7.664;2023-05-24T11:07:56;993.55;;;15.74;57.76
29815;BME280;16708;50.426;7.664;2023-05-24T11:12:50;993.59;;;15.22;57.69
29815;BME280;16708;50.426;7.664;2023-05-24T11:17:45;993.69;;;15.57;53.86
29815;BME280;16708;50.426;7.664;2023-05-24T11:22:39;993.49;;;15.51;61.93
29815;BME280;16708;50.426;7.664;2023-05-24T11:27:33;993.46;;;15.70;52.69
29815;BME280;16708;50.426;7.664;2023-05-24T11:32:28;993.49;;;16.20;50.59
29815;BME280;16708;50.426;7.664;2023-05-24T11:37:23;993.47;;;16.20;51.70
29815;BME280;16708;50.426;7.664;2023-05-24T11:42:17;993.47;;;15.45;55.43
29815;BME280;16708;50.426;7.664;2023-05-24T11:47:11;993.46;;;14.35;57.77
29815;BME280;16708;50.426;7.664;2023-05-24T11:52:05;993.42;;;15.04;67.00
29815;BME280;16708;50.426;7.664;2023-05-24T11:56:59;993.52;;;14.71;57.81
29815;BME280;16708;50.426;7.664;2023-05-24T12:01:55;993.55;;;14.45;58.13
29815;BME280;16708;50.426;7.664;2023-05-24T12:06:47;993.54;;;14.84;57.31
29815;BME280;16708;50.426;7.664;2023-05-24T12:11:42;993.51;;;15.33;59.37
29815;BME280;16708;50.426;7.664;2023-05-24T12:16:37;993.50;;;14.95;59.35
29815;BME280;16708;50.426;7.664;2023-05-24T12:21:31;993.49;;;14.19;60.81
29815;BME280;16708;50.426;7.664;2023-05-24T12:26:25;993.51;;;13.97;61.71
29815;BME280;16708;50.426;7.664;2023-05-24T12:31:19;993.45;;;14.37;63.33
29815;BME280;16708;50.426;7.664;2023-05-24T12:41:08;993.41;;;15.54;57.38
29815;BME280;16708;50.426;7.664;2023-05-24T12:46:02;993.32;;;16.38;53.18
29815;BME280;16708;50.426;7.664;2023-05-24T12:50:57;993.45;;;15.75;55.79
29815;BME280;16708;50.426;7.664;2023-05-24T12:55:50;993.41;;;14.58;59.08
29815;BME280;16708;50.426;7.664;2023-05-24T13:00:44;993.40;;;14.36;60.47
29815;BME280;16708;50.426;7.664;2023-05-24T13:05:38;993.40;;;14.27;63.31
29815;BME280;16708;50.426;7.664;2023-05-24T13:10:32;993.43;;;14.20;60.75
29815;BME280;16708;50.426;7.664;2023-05-24T13:15:26;993.41;;;14.32;62.94
29815;BME280;16708;50.426;7.664;2023-05-24T13:20:21;993.43;;;13.98;76.28
29815;BME280;16708;50.426;7.664;2023-05-24T13:25:14;993.38;;;13.97;69.84
29815;BME280;16708;50.426;7.664;2023-05-24T13:30:08;993.41;;;13.59;74.61
29815;BME280;16708;50.426;7.664;2023-05-24T13:35:02;993.42;;;13.70;74.30
29815;BME280;16708;50.426;7.664;2023-05-24T13:39:56;993.25;;;14.10;64.71
29815;BME280;16708;50.426;7.664;2023-05-24T13:44:50;993.27;;;14.31;65.15
29815;BME280;16708;50.426;7.664;2023-05-24T13:49:45;993.24;;;14.31;68.04
29815;BME280;16708;50.426;7.664;2023-05-24T13:54:39;993.23;;;14.83;62.30
29815;BME280;16708;50.426;7.664;2023-05-24T13:59:33;993.20;;;14.40;66.18
29815;BME280;16708;50.426;7.664;2023-05-24T14:04:28;993.18;;;15.05;58.24
29815;BME280;16708;50.426;7.664;2023-05-24T14:09:19;993.22;;;15.67;55.84
29815;BME280;16708;50.426;7.664;2023-05-24T14:14:13;993.28;;;16.18;55.24
29815;BME280;16708;50.426;7.664;2023-05-24T14:19:08;993.26;;;16.09;55.60
29815;BME280;16708;50.426;7.664;2023-05-24T14:24:03;993.21;;;16.52;50.06
29815;BME280;16708;50.426;7.664;2023-05-24T14:28:57;993.25;;;17.35;47.70
29815;BME280;16708;50.426;7.664;2023-05-24T14:33:52;993.19;;;19.94;39.85
29815;BME280;16708;50.426;7.664;2023-05-24T14:38:45;993.26;;;17.65;42.96
29815;BME280;16708;50.426;7.664;2023-05-24T14:43:39;993.23;;;16.82;47.81
29815;BME280;16708;50.426;7.664;2023-05-24T14:48:33;993.25;;;16.34;49.86
29815;BME280;16708;50.426;7.664;2023-05-24T14:53:27;993.29;;;15.94;53.52
29815;BME280;16708;50.426;7.664;2023-05-24T14:58:21;993.30;;;15.13;58.74
29815;BME280;16708;50.426;7.664;2023-05-24T15:03:13;993.32;;;15.15;60.90
29815;BME280;16708;50.426;7.664;2023-05-24T15:08:07;993.24;;;14.88;60.28
29815;BME280;16708;50.426;7.664;2023-05-24T15:13:01;993.15;;;16.13;52.16
29815;BME280;16708;50.426;7.664;2023-05-24T15:17:56;993.07;;;18.82;45.42
29815;BME280;16708;50.426;7.664;2023-05-24T15:22:51;993.11;;;20.97;38.83
29815;BME280;16708;50.426;7.664;2023-05-24T15:27:48;993.00;;;19.53;40.87
29815;BME280;16708;50.426;7.664;2023-05-24T15:32:43;993.03;;;20.66;39.89
29815;BME280;16708;50.426;7.664;2023-05-24T15:37:38;993.03;;;17.32;45.62
29815;BME280;16708;50.426;7.664;2023-05-24T15:42:31;992.93;;;15.64;50.96
29815;BME280;16708;50.426;7.664;2023-05-24T15:47:22;992.92;;;15.15;56.99
29815;BME280;16708;50.426;7.664;2023-05-24T15:52:16;993.00;;;14.96;63.16
29815;BME280;16708;50.426;7.664;2023-05-24T15:57:10;992.97;;;14.53;63.56
29815;BME280;16708;50.426;7.664;2023-05-24T16:02:06;993.11;;;14.82;64.55
29815;BME280;16708;50.426;7.664;2023-05-24T16:06:58;993.04;;;14.76;61.54
29815;BME280;16708;50.426;7.664;2023-05-24T16:11:52;993.06;;;15.15;64.10
29815;BME280;16708;50.426;7.664;2023-05-24T16:16:46;993.03;;;14.69;64.93
29815;BME280;16708;50.426;7.664;2023-05-24T16:21:40;993.09;;;14.16;65.31
29815;BME280;16708;50.426;7.664;2023-05-24T16:26:35;993.00;;;14.05;68.27
29815;BME280;16708;50.426;7.664;2023-05-24T16:31:29;993.00;;;13.59;70.26
29815;BME280;16708;50.426;7.664;2023-05-24T16:36:23;992.98;;;13.53;75.83
29815;BME280;16708;50.426;7.664;2023-05-24T16:41:17;992.93;;;13.49;80.88
29815;BME280;16708;50.426;7.664;2023-05-24T16:46:11;992.97;;;13.51;80.94
29815;BME280;16708;50.426;7.664;2023-05-24T16:51:06;992.87;;;13.18;82.67
29815;BME280;16708;50.426;7.664;2023-05-24T16:55:57;992.90;;;13.33;80.76
29815;BME280;16708;50.426;7.664;2023-05-24T17:00:52;992.95;;;13.72;81.30
29815;BME280;16708;50.426;7.664;2023-05-24T17:05:45;992.95;;;13.74;79.39
29815;BME280;16708;50.426;7.664;2023-05-24T17:10:40;992.96;;;13.85;77.57
29815;BME280;16708;50.426;7.664;2023-05-24T17:15:34;992.94;;;13.71;83.76
29815;BME280;16708;50.426;7.664;2023-05-24T17:20:28;992.94;;;13.68;82.34
29815;BME280;16708;50.426;7.664;2023-05-24T17:25:23;992.97;;;13.40;86.70
29815;BME280;16708;50.426;7.664;2023-05-24T17:30:17;992.99;;;13.40;89.63
29815;BME280;16708;50.426;7.664;2023-05-24T17:35:11;993.04;;;13.29;90.60
29815;BME280;16708;50.426;7.664;2023-05-24T17:40:05;993.06;;;13.39;92.87
29815;BME280;16708;50.426;7.664;2023-05-24T17:44:59;993.06;;;13.12;95.02
29815;BME280;16708;50.426;7.664;2023-05-24T17:49:53;993.09;;;12.97;100.00
29815;BME280;16708;50.426;7.664;2023-05-24T17:54:48;993.02;;;12.81;100.00
29815;BME280;16708;50.426;7.664;2023-05-24T17:59:42;993.09;;;12.35;100.00
29815;BME280;16708;50.426;7.664;2023-05-24T18:04:36;993.03;;;12.21;100.00
29815;BME280;16708;50.426;7.664;2023-05-24T18:09:30;993.07;;;12.00;100.00
29815;BME280;16708;50.426;7.664;2023-05-24T18:14:24;993.01;;;11.86;100.00
29815;BME280;16708;50.426;7.664;2023-05-24T18:19:19;993.15;;;11.80;100.00
29815;BME280;16708;50.426;7.664;2023-05-24T18:24:13;993.25;;;11.67;100.00
29815;BME280;16708;50.426;7.664;2023-05-24T18:29:07;993.11;;;11.72;100.00
29815;BME280;16708;50.426;7.664;2023-05-24T18:34:01;993.16;;;11.49;100.00
29815;BME280;16708;50.426;7.664;2023-05-24T18:38:55;993.19;;;11.36;100.00
29815;BME280;16708;50.426;7.664;2023-05-24T18:43:50;993.31;;;11.24;100.00
29815;BME280;16708;50.426;7.664;2023-05-24T18:48:44;993.40;;;11.08;100.00
29815;BME280;16708;50.426;7.664;2023-05-24T18:53:38;993.44;;;10.86;100.00
29815;BME280;16708;50.426;7.664;2023-05-24T18:58:32;993.31;;;10.59;100.00
29815;BME280;16708;50.426;7.664;2023-05-24T19:03:26;993.36;;;10.40;100.00
29815;BME280;16708;50.426;7.664;2023-05-24T19:08:20;993.38;;;10.29;100.00
29815;BME280;16708;50.426;7.664;2023-05-24T19:13:14;993.37;;;10.04;100.00
29815;BME280;16708;50.426;7.664;2023-05-24T19:18:09;993.45;;;9.89;100.00
29815;BME280;16708;50.426;7.664;2023-05-24T19:23:03;993.55;;;9.71;100.00
29815;BME280;16708;50.426;7.664;2023-05-24T19:27:57;993.63;;;9.64;100.00
29815;BME280;16708;50.426;7.664;2023-05-24T19:32:51;993.75;;;9.47;100.00
29815;BME280;16708;50.426;7.664;2023-05-24T19:37:46;993.65;;;9.34;100.00
29815;BME280;16708;50.426;7.664;2023-05-24T19:42:40;993.74;;;9.30;100.00
29815;BME280;16708;50.426;7.664;2023-05-24T19:47:35;993.85;;;9.19;100.00
29815;BME280;16708;50.426;7.664;2023-05-24T19:52:29;993.90;;;9.08;100.00
29815;BME280;16708;50.426;7.664;2023-05-24T19:57:22;993.93;;;9.00;100.00
29815;BME280;16708;50.426;7.664;2023-05-24T20:02:17;993.95;;;8.89;100.00
29815;BME280;16708;50.426;7.664;2023-05-24T20:07:11;994.02;;;8.82;100.00
29815;BME280;16708;50.426;7.664;2023-05-24T20:12:05;994.08;;;8.69;100.00
29815;BME280;16708;50.426;7.664;2023-05-24T20:16:59;994.07;;;8.58;100.00
29815;BME280;16708;50.426;7.664;2023-05-24T20:21:54;994.12;;;8.47;100.00
29815;BME280;16708;50.426;7.664;2023-05-24T20:26:48;994.13;;;8.40;100.00
29815;BME280;16708;50.426;7.664;2023-05-24T20:31:42;994.11;;;8.55;100.00
29815;BME280;16708;50.426;7.664;2023-05-24T20:36:36;994.12;;;8.74;100.00
29815;BME280;16708;50.426;7.664;2023-05-24T20:41:31;994.15;;;8.88;100.00
29815;BME280;16708;50.426;7.664;2023-05-24T20:46:25;994.14;;;9.02;100.00
29815;BME280;16708;50.426;7.664;2023-05-24T20:51:20;994.14;;;9.00;100.00
29815;BME280;16708;50.426;7.664;2023-05-24T20:56:14;994.06;;;8.88;100.00
29815;BME280;16708;50.426;7.664;2023-05-24T21:01:09;994.07;;;8.79;100.00
29815;BME280;16708;50.426;7.664;2023-05-24T21:06:02;994.19;;;8.70;100.00
29815;BME280;16708;50.426;7.664;2023-05-24T21:10:56;994.22;;;8.72;100.00
29815;BME280;16708;50.426;7.664;2023-05-24T21:15:50;994.19;;;8.67;100.00
29815;BME280;16708;50.426;7.664;2023-05-24T21:20:44;994.28;;;8.69;100.00
29815;BME280;16708;50.426;7.664;2023-05-24T21:25:38;994.29;;;8.61;100.00
29815;BME280;16708;50.426;7.664;2023-05-24T21:30:31;994.29;;;8.53;100.00
29815;BME280;16708;50.426;7.664;2023-05-24T21:35:25;994.31;;;8.51;100.00
29815;BME280;16708;50.426;7.664;2023-05-24T21:40:20;994.30;;;8.47;100.00
29815;BME280;16708;50.426;7.664;2023-05-24T21:45:14;994.37;;;8.42;100.00
29815;BME280;16708;50.426;7.664;2023-05-24T21:50:08;994.30;;;8.33;100.00
29815;BME280;16708;50.426;7.664;2023-05-24T21:55:03;994.41;;;8.28;100.00
29815;BME280;16708;50.426;7.664;2023-05-24T21:59:57;994.38;;;8.18;100.00
29815;BME280;16708;50.426;7.664;2023-05-24T22:04:51;994.49;;;7.93;100.00
29815;BME280;16708;50.426;7.664;2023-05-24T22:09:45;994.49;;;7.76;100.00
29815;BME280;16708;50.426;7.664;2023-05-24T22:14:40;994.44;;;7.71;100.00
29815;BME280;16708;50.426;7.664;2023-05-24T22:19:34;994.44;;;7.53;100.00
29815;BME280;16708;50.426;7.664;2023-05-24T22:24:28;994.40;;;7.33;100.00
29815;BME280;16708;50.426;7.664;2023-05-24T22:29:22;994.41;;;7.29;100.00
29815;BME280;16708;50.426;7.664;2023-05-24T22:34:17;994.40;;;7.35;100.00
29815;BME280;16708;50.426;7.664;2023-05-24T22:39:11;994.45;;;7.34;100.00
29815;BME280;16708;50.426;7.664;2023-05-24T22:44:06;994.42;;;7.27;100.00
29815;BME280;16708;50.426;7.664;2023-05-24T22:48:59;994.41;;;7.24;100.00
29815;BME280;16708;50.426;7.664;2023-05-24T22:53:53;994.40;;;7.19;100.00
29815;BME280;16708;50.426;7.664;2023-05-24T22:58:47;994.49;;;7.14;100.00
29815;BME280;16708;50.426;7.664;2023-05-24T23:03:42;994.53;;;7.10;100.00
29815;BME280;16708;50.426;7.664;2023-05-24T23:08:36;994.61;;;6.96;100.00
29815;BME280;16708;50.426;7.664;2023-05-24T23:13:28;994.62;;;6.87;100.00
29815;BME280;16708;50.426;7.664;2023-05-24T23:18:23;994.57;;;6.76;100.00
29815;BME280;16708;50.426;7.664;2023-05-24T23:23:17;994.63;;;6.64;100.00
29815;BME280;16708;50.426;7.664;2023-05-24T23:28:12;994.70;;;6.59;100.00
29815;BME280;16708;50.426;7.664;2023-05-24T23:33:07;994.71;;;6.55;100.00
29815;BME280;16708;50.426;7.664;2023-05-24T23:37:59;994.66;;;6.49;100.00
29815;BME280;16708;50.426;7.664;2023-05-24T23:42:53;994.71;;;6.50;100.00
29815;BME280;16708;50.426;7.664;2023-05-24T23:47:48;994.69;;;6.49;100.00
29815;BME280;16708;50.426;7.664;2023-05-24T23:52:40;994.64;;;6.37;100.00
29815;BME280;16708;50.426;7.664;2023-05-24T23:57:34;994.76;;;6.27;100.00
